sensor_id;sensor_type;location;lat;lon;timestamp;pressure;altitude;pressure_sealevel;temperature;humidity
78665;BME280;67981;51.022;-2.870;2023-03-13T00:00:59;99180.59;;;11.33;91.92
78665;BME280;67981;51.022;-2.870;2023-03-13T00:03:24;99182.34;;;11.23;92.04
78665;BME280;67981;51.022;-2.870;2023-03-13T00:05:55;99184.91;;;11.22;92.20
78665;BME280;67981;51.022;-2.870;2023-03-13T00:08:20;99183.19;;;11.24;92.34
78665;BME280;67981;51.022;-2.870;2023-03-13T00:10:46;99147.06;;;11.10;92.55
78665;BME280;67981;51.022;-2.870;2023-03-13T00:13:11;99164.25;;;11.20;92.58
78665;BME280;67981;51.022;-2.870;2023-03-13T00:15:36;99142.75;;;11.11;92.86
78665;BME280;67981;51.022;-2.870;2023-03-13T00:18:02;99148.75;;;11.25;92.90
78665;BME280;67981;51.022;-2.870;2023-03-13T00:20:28;99139.31;;;11.25;93.06
78665;BME280;67981;51.022;-2.870;2023-03-13T00:22:53;99137.56;;;11.23;93.08
78665;BME280;67981;51.022;-2.870;2023-03-13T00:25:19;99116.94;;;11.17;93.37
78665;BME280;67981;51.022;-2.870;2023-03-13T00:27:45;99129.81;;;11.21;93.49
78665;BME280;67981;51.022;-2.870;2023-03-13T00:30:11;99102.31;;;11.08;93.61
78665;BME280;67981;51.022;-2.870;2023-03-13T00:32:44;99112.63;;;11.11;93.54
78665;BME280;67981;51.022;-2.870;2023-03-13T00:35:11;99110.06;;;11.17;92.48
78665;BME280;67981;51.022;-2.870;2023-03-13T00:37:36;99090.25;;;11.10;92.64
78665;BME280;67981;51.022;-2.870;2023-03-13T00:40:03;99098.88;;;11.14;92.89
78665;BME280;67981;51.022;-2.870;2023-03-13T00:42:28;99074.81;;;11.01;92.63
78665;BME280;67981;51.022;-2.870;2023-03-13T00:44:54;99094.56;;;11.14;92.79
78665;BME280;67981;51.022;-2.870;2023-03-13T00:47:19;99093.69;;;11.12;92.74
78665;BME280;67981;51.022;-2.870;2023-03-13T00:49:45;99083.41;;;11.06;92.94
78665;BME280;67981;51.022;-2.870;2023-03-13T00:52:10;99102.31;;;11.19;92.48
78665;BME280;67981;51.022;-2.870;2023-03-13T00:54:35;99085.94;;;11.20;92.00
78665;BME280;67981;51.022;-2.870;2023-03-13T00:57:01;99061.78;;;11.43;91.40
78665;BME280;67981;51.022;-2.870;2023-03-13T00:59:26;99072.94;;;11.53;91.30
78665;BME280;67981;51.022;-2.870;2023-03-13T01:01:51;99057.38;;;11.62;91.17
78665;BME280;67981;51.022;-2.870;2023-03-13T01:04:17;99050.50;;;11.55;91.30
78665;BME280;67981;51.022;-2.870;2023-03-13T01:06:42;99052.22;;;11.62;91.17
78665;BME280;67981;51.022;-2.870;2023-03-13T01:09:10;99044.47;;;11.67;90.64
78665;BME280;67981;51.022;-2.870;2023-03-13T01:11:39;99025.50;;;11.62;90.61
78665;BME280;67981;51.022;-2.870;2023-03-13T01:14:08;99035.88;;;11.65;90.89
78665;BME280;67981;51.022;-2.870;2023-03-13T01:16:36;99030.69;;;11.65;90.67
78665;BME280;67981;51.022;-2.870;2023-03-13T01:19:06;99028.06;;;11.77;89.98
78665;BME280;67981;51.022;-2.870;2023-03-13T01:21:32;99025.44;;;11.83;89.81
78665;BME280;67981;51.022;-2.870;2023-03-13T01:23:58;99019.44;;;11.82;89.79
78665;BME280;67981;51.022;-2.870;2023-03-13T01:26:24;99017.66;;;11.84;89.44
78665;BME280;67981;51.022;-2.870;2023-03-13T01:28:50;99017.66;;;11.87;89.01
78665;BME280;67981;51.022;-2.870;2023-03-13T01:31:23;99010.69;;;12.00;88.59
78665;BME280;67981;51.022;-2.870;2023-03-13T01:33:53;99014.13;;;12.05;88.22
78665;BME280;67981;51.022;-2.870;2023-03-13T01:36:26;98998.63;;;11.99;88.53
78665;BME280;67981;51.022;-2.870;2023-03-13T01:38:54;98983.97;;;11.99;88.48
78665;BME280;67981;51.022;-2.870;2023-03-13T01:41:21;98980.59;;;11.90;88.50
78665;BME280;67981;51.022;-2.870;2023-03-13T01:43:47;98993.44;;;12.05;87.65
78665;BME280;67981;51.022;-2.870;2023-03-13T01:46:17;98981.34;;;12.04;87.46
78665;BME280;67981;51.022;-2.870;2023-03-13T01:53:49;98995.97;;;12.11;87.37
78665;BME280;67981;51.022;-2.870;2023-03-13T01:56:19;98972.72;;;12.08;87.16
78665;BME280;67981;51.022;-2.870;2023-03-13T01:58:48;98986.50;;;12.08;87.80
78665;BME280;67981;51.022;-2.870;2023-03-13T02:01:16;98965.03;;;11.96;87.96
78665;BME280;67981;51.022;-2.870;2023-03-13T02:03:42;98961.59;;;11.95;88.27
78665;BME280;67981;51.022;-2.870;2023-03-13T02:06:08;98975.38;;;11.96;89.20
78665;BME280;67981;51.022;-2.870;2023-03-13T02:08:43;98962.56;;;11.78;89.78
78665;BME280;67981;51.022;-2.870;2023-03-13T02:13:49;98965.16;;;11.76;90.28
78665;BME280;67981;51.022;-2.870;2023-03-13T02:16:15;98971.22;;;11.75;90.20
78665;BME280;67981;51.022;-2.870;2023-03-13T02:18:41;98945.41;;;11.72;90.34
78665;BME280;67981;51.022;-2.870;2023-03-13T02:21:13;98944.56;;;11.69;90.42
78665;BME280;67981;51.022;-2.870;2023-03-13T02:24:15;98964.34;;;11.76;90.30
78665;BME280;67981;51.022;-2.870;2023-03-13T02:26:44;98956.53;;;11.83;89.66
78665;BME280;67981;51.022;-2.870;2023-03-13T02:29:10;98923.88;;;11.70;88.74
78665;BME280;67981;51.022;-2.870;2023-03-13T02:31:43;98947.75;;;12.04;86.99
78665;BME280;67981;51.022;-2.870;2023-03-13T02:34:11;98956.22;;;12.19;85.13
78665;BME280;67981;51.022;-2.870;2023-03-13T02:36:38;98938.97;;;12.21;84.32
78665;BME280;67981;51.022;-2.870;2023-03-13T02:39:05;98939.91;;;12.17;83.37
78665;BME280;67981;51.022;-2.870;2023-03-13T02:41:32;98918.31;;;12.20;82.05
78665;BME280;67981;51.022;-2.870;2023-03-13T02:43:58;98908.91;;;12.08;82.08
78665;BME280;67981;51.022;-2.870;2023-03-13T02:46:24;98909.81;;;12.06;82.38
78665;BME280;67981;51.022;-2.870;2023-03-13T02:48:52;98916.66;;;12.13;82.55
78665;BME280;67981;51.022;-2.870;2023-03-13T02:51:28;98904.59;;;12.10;82.84
78665;BME280;67981;51.022;-2.870;2023-03-13T02:53:59;98911.47;;;12.14;82.80
78665;BME280;67981;51.022;-2.870;2023-03-13T02:56:27;98891.69;;;12.09;82.77
78665;BME280;67981;51.022;-2.870;2023-03-13T02:58:54;98898.56;;;12.14;82.59
78665;BME280;67981;51.022;-2.870;2023-03-13T03:01:20;98897.72;;;12.09;82.79
78665;BME280;67981;51.022;-2.870;2023-03-13T03:03:45;98887.41;;;12.08;83.05
78665;BME280;67981;51.022;-2.870;2023-03-13T03:06:10;98884.81;;;12.09;83.52
78665;BME280;67981;51.022;-2.870;2023-03-13T03:08:36;98872.91;;;11.86;84.83
78665;BME280;67981;51.022;-2.870;2023-03-13T03:11:05;98882.38;;;11.90;85.14
78665;BME280;67981;51.022;-2.870;2023-03-13T03:13:31;98854.06;;;11.75;85.44
78665;BME280;67981;51.022;-2.870;2023-03-13T03:15:57;98864.41;;;11.75;86.07
78665;BME280;67981;51.022;-2.870;2023-03-13T03:18:23;98859.25;;;11.73;86.41
78665;BME280;67981;51.022;-2.870;2023-03-13T03:20:48;98864.38;;;11.82;86.16
78665;BME280;67981;51.022;-2.870;2023-03-13T03:23:13;98850.59;;;11.79;86.08
78665;BME280;67981;51.022;-2.870;2023-03-13T03:25:39;98832.53;;;11.76;86.14
78665;BME280;67981;51.022;-2.870;2023-03-13T03:28:04;98853.16;;;11.83;87.22
78665;BME280;67981;51.022;-2.870;2023-03-13T03:30:29;98826.63;;;11.56;87.77
78665;BME280;67981;51.022;-2.870;2023-03-13T03:32:55;98828.34;;;11.55;88.61
78665;BME280;67981;51.022;-2.870;2023-03-13T03:35:20;98824.91;;;11.56;88.21
78665;BME280;67981;51.022;-2.870;2023-03-13T03:37:45;98848.06;;;11.71;87.22
78665;BME280;67981;51.022;-2.870;2023-03-13T03:40:11;98844.59;;;11.77;87.47
78665;BME280;67981;51.022;-2.870;2023-03-13T03:42:37;98844.44;;;11.93;85.69
78665;BME280;67981;51.022;-2.870;2023-03-13T03:45:02;98849.53;;;12.01;84.35
78665;BME280;67981;51.022;-2.870;2023-03-13T03:47:28;98846.06;;;12.06;82.22
78665;BME280;67981;51.022;-2.870;2023-03-13T03:49:53;98832.34;;;11.94;83.05
78665;BME280;67981;51.022;-2.870;2023-03-13T03:52:19;98831.44;;;12.02;81.92
78665;BME280;67981;51.022;-2.870;2023-03-13T03:54:44;98817.69;;;11.97;81.25
78665;BME280;67981;51.022;-2.870;2023-03-13T03:57:09;98829.75;;;11.95;81.10
78665;BME280;67981;51.022;-2.870;2023-03-13T03:59:35;98807.47;;;11.85;80.87
78665;BME280;67981;51.022;-2.870;2023-03-13T04:02:00;98821.97;;;12.00;80.84
78665;BME280;67981;51.022;-2.870;2023-03-13T04:04:26;98812.66;;;11.84;81.00
78665;BME280;67981;51.022;-2.870;2023-03-13T04:06:51;98810.91;;;11.86;81.03
78665;BME280;67981;51.022;-2.870;2023-03-13T04:09:17;98816.97;;;11.82;81.63
78665;BME280;67981;51.022;-2.870;2023-03-13T04:11:42;98831.59;;;11.84;81.54
78665;BME280;67981;51.022;-2.870;2023-03-13T04:14:07;98810.13;;;11.75;82.15
78665;BME280;67981;51.022;-2.870;2023-03-13T04:16:34;98802.38;;;11.76;81.49
78665;BME280;67981;51.022;-2.870;2023-03-13T04:18:59;98810.09;;;11.82;81.05
78665;BME280;67981;51.022;-2.870;2023-03-13T04:21:25;98798.94;;;11.77;80.67
78665;BME280;67981;51.022;-2.870;2023-03-13T04:23:50;98789.56;;;11.64;81.30
78665;BME280;67981;51.022;-2.870;2023-03-13T04:26:15;98815.22;;;11.85;80.08
78665;BME280;67981;51.022;-2.870;2023-03-13T04:28:41;98796.31;;;11.80;79.51
78665;BME280;67981;51.022;-2.870;2023-03-13T04:31:06;98804.91;;;11.81;79.90
78665;BME280;67981;51.022;-2.870;2023-03-13T04:33:31;98808.41;;;11.75;79.80
78665;BME280;67981;51.022;-2.870;2023-03-13T04:35:57;98815.06;;;12.00;77.49
78665;BME280;67981;51.022;-2.870;2023-03-13T04:38:22;98810.00;;;11.90;78.13
78665;BME280;67981;51.022;-2.870;2023-03-13T04:40:48;98808.34;;;11.81;78.16
78665;BME280;67981;51.022;-2.870;2023-03-13T04:43:13;98816.81;;;12.00;76.64
78665;BME280;67981;51.022;-2.870;2023-03-13T04:45:38;98815.16;;;11.91;77.04
78665;BME280;67981;51.022;-2.870;2023-03-13T04:48:04;98811.78;;;11.85;77.61
78665;BME280;67981;51.022;-2.870;2023-03-13T04:50:29;98814.47;;;11.73;78.04
78665;BME280;67981;51.022;-2.870;2023-03-13T04:52:55;98802.31;;;11.81;76.46
78665;BME280;67981;51.022;-2.870;2023-03-13T04:55:20;98792.84;;;11.81;76.50
78665;BME280;67981;51.022;-2.870;2023-03-13T04:57:45;98811.69;;;11.92;74.98
78665;BME280;67981;51.022;-2.870;2023-03-13T05:00:11;98798.16;;;11.68;75.93
78665;BME280;67981;51.022;-2.870;2023-03-13T05:02:36;98804.19;;;11.65;75.72
78665;BME280;67981;51.022;-2.870;2023-03-13T05:05:02;98799.81;;;11.75;75.41
78665;BME280;67981;51.022;-2.870;2023-03-13T05:07:28;98797.31;;;11.66;75.97
78665;BME280;67981;51.022;-2.870;2023-03-13T05:09:53;98798.19;;;11.66;75.59
78665;BME280;67981;51.022;-2.870;2023-03-13T05:12:18;98786.09;;;11.65;74.63
78665;BME280;67981;51.022;-2.870;2023-03-13T05:14:44;98790.41;;;11.69;74.71
78665;BME280;67981;51.022;-2.870;2023-03-13T05:17:09;98774.09;;;11.60;74.74
78665;BME280;67981;51.022;-2.870;2023-03-13T05:19:36;98786.97;;;11.67;73.98
78665;BME280;67981;51.022;-2.870;2023-03-13T05:22:02;98787.00;;;11.57;75.02
78665;BME280;67981;51.022;-2.870;2023-03-13T05:24:27;98794.84;;;11.46;76.21
78665;BME280;67981;51.022;-2.870;2023-03-13T05:26:52;98781.94;;;11.44;76.78
78665;BME280;67981;51.022;-2.870;2023-03-13T05:29:18;98783.66;;;11.44;78.17
78665;BME280;67981;51.022;-2.870;2023-03-13T05:31:43;98786.41;;;11.27;79.62
78665;BME280;67981;51.022;-2.870;2023-03-13T05:34:09;98794.13;;;11.26;80.12
78665;BME280;67981;51.022;-2.870;2023-03-13T05:36:34;98786.41;;;11.21;80.57
78665;BME280;67981;51.022;-2.870;2023-03-13T05:38:59;98771.78;;;11.22;80.72
78665;BME280;67981;51.022;-2.870;2023-03-13T05:41:25;98757.13;;;11.28;79.59
78665;BME280;67981;51.022;-2.870;2023-03-13T05:43:50;98760.59;;;11.27;79.16
78665;BME280;67981;51.022;-2.870;2023-03-13T05:46:15;98744.28;;;11.21;78.88
78665;BME280;67981;51.022;-2.870;2023-03-13T05:48:41;98719.44;;;11.06;78.97
78665;BME280;67981;51.022;-2.870;2023-03-13T05:51:06;98712.59;;;10.98;78.95
78665;BME280;67981;51.022;-2.870;2023-03-13T05:53:31;98727.03;;;11.23;78.10
78665;BME280;67981;51.022;-2.870;2023-03-13T05:55:57;98738.28;;;11.16;78.53
78665;BME280;67981;51.022;-2.870;2023-03-13T05:58:22;98721.03;;;11.21;78.94
78665;BME280;67981;51.022;-2.870;2023-03-13T06:00:47;98747.63;;;11.32;78.32
78665;BME280;67981;51.022;-2.870;2023-03-13T06:03:13;98730.38;;;11.35;77.49
78665;BME280;67981;51.022;-2.870;2023-03-13T06:05:38;98708.00;;;11.33;77.54
78665;BME280;67981;51.022;-2.870;2023-03-13T06:08:04;98718.25;;;11.42;77.54
78665;BME280;67981;51.022;-2.870;2023-03-13T06:10:29;98717.41;;;11.43;77.39
78665;BME280;67981;51.022;-2.870;2023-03-13T06:12:55;98718.31;;;11.34;78.07
78665;BME280;67981;51.022;-2.870;2023-03-13T06:15:22;98735.59;;;11.28;78.46
78665;BME280;67981;51.022;-2.870;2023-03-13T06:17:47;98721.00;;;11.24;78.37
78665;BME280;67981;51.022;-2.870;2023-03-13T06:20:13;98718.31;;;11.36;76.93
78665;BME280;67981;51.022;-2.870;2023-03-13T06:22:39;98723.53;;;11.31;77.80
78665;BME280;67981;51.022;-2.870;2023-03-13T06:25:05;98714.03;;;11.33;76.82
78665;BME280;67981;51.022;-2.870;2023-03-13T06:27:31;98723.44;;;11.39;76.30
78665;BME280;67981;51.022;-2.870;2023-03-13T06:29:56;98722.56;;;11.41;76.07
78665;BME280;67981;51.022;-2.870;2023-03-13T06:32:21;98695.94;;;11.35;75.51
78665;BME280;67981;51.022;-2.870;2023-03-13T06:34:47;98717.34;;;11.48;75.96
78665;BME280;67981;51.022;-2.870;2023-03-13T06:37:12;98710.56;;;11.37;76.55
78665;BME280;67981;51.022;-2.870;2023-03-13T06:39:38;98700.22;;;11.36;76.35
78665;BME280;67981;51.022;-2.870;2023-03-13T06:42:03;98688.25;;;11.26;76.80
78665;BME280;67981;51.022;-2.870;2023-03-13T06:44:29;98713.25;;;11.27;77.84
78665;BME280;67981;51.022;-2.870;2023-03-13T06:46:54;98720.28;;;11.05;79.96
78665;BME280;67981;51.022;-2.870;2023-03-13T06:49:19;98697.09;;;11.01;80.15
78665;BME280;67981;51.022;-2.870;2023-03-13T06:51:45;98716.09;;;10.89;81.55
78665;BME280;67981;51.022;-2.870;2023-03-13T06:54:10;98690.47;;;10.65;82.73
78665;BME280;67981;51.022;-2.870;2023-03-13T06:56:36;98701.66;;;10.58;84.12
78665;BME280;67981;51.022;-2.870;2023-03-13T06:59:01;98716.34;;;10.52;85.53
78665;BME280;67981;51.022;-2.870;2023-03-13T07:01:26;98724.94;;;10.49;85.01
78665;BME280;67981;51.022;-2.870;2023-03-13T07:03:52;98723.22;;;10.51;85.46
78665;BME280;67981;51.022;-2.870;2023-03-13T07:06:17;98708.59;;;10.50;85.39
78665;BME280;67981;51.022;-2.870;2023-03-13T07:08:43;98697.38;;;10.57;84.74
78665;BME280;67981;51.022;-2.870;2023-03-13T07:11:11;98696.41;;;10.75;82.59
78665;BME280;67981;51.022;-2.870;2023-03-13T07:13:37;98689.47;;;10.83;81.72
78665;BME280;67981;51.022;-2.870;2023-03-13T07:16:08;98692.91;;;10.85;82.15
78665;BME280;67981;51.022;-2.870;2023-03-13T07:18:34;98694.63;;;10.84;81.64
78665;BME280;67981;51.022;-2.870;2023-03-13T07:21:00;98703.25;;;10.82;81.64
78665;BME280;67981;51.022;-2.870;2023-03-13T07:23:29;98689.53;;;10.75;82.39
78665;BME280;67981;51.022;-2.870;2023-03-13T07:25:57;98673.19;;;10.76;81.37
78665;BME280;67981;51.022;-2.870;2023-03-13T07:28:23;98684.34;;;10.80;82.34
78665;BME280;67981;51.022;-2.870;2023-03-13T07:30:49;98674.84;;;10.85;81.11
78665;BME280;67981;51.022;-2.870;2023-03-13T07:33:15;98680.81;;;10.94;80.68
78665;BME280;67981;51.022;-2.870;2023-03-13T07:35:46;98671.38;;;10.86;81.74
78665;BME280;67981;51.022;-2.870;2023-03-13T07:38:11;98669.63;;;10.92;80.58
78665;BME280;67981;51.022;-2.870;2023-03-13T07:40:37;98654.16;;;10.89;80.59
78665;BME280;67981;51.022;-2.870;2023-03-13T07:43:02;98650.72;;;10.93;80.38
78665;BME280;67981;51.022;-2.870;2023-03-13T07:45:27;98649.00;;;10.89;79.90
78665;BME280;67981;51.022;-2.870;2023-03-13T07:47:53;98669.59;;;10.95;80.22
78665;BME280;67981;51.022;-2.870;2023-03-13T07:50:18;98662.69;;;11.00;80.26
78665;BME280;67981;51.022;-2.870;2023-03-13T07:52:43;98666.84;;;11.16;78.22
78665;BME280;67981;51.022;-2.870;2023-03-13T07:55:09;98659.09;;;11.16;78.98
78665;BME280;67981;51.022;-2.870;2023-03-13T07:57:34;98661.59;;;11.27;77.67
78665;BME280;67981;51.022;-2.870;2023-03-13T07:59:59;98661.66;;;11.21;77.68
78665;BME280;67981;51.022;-2.870;2023-03-13T08:02:25;98631.59;;;11.14;77.01
78665;BME280;67981;51.022;-2.870;2023-03-13T08:04:51;98654.66;;;11.32;76.35
78665;BME280;67981;51.022;-2.870;2023-03-13T08:07:17;98661.44;;;11.43;76.18
78665;BME280;67981;51.022;-2.870;2023-03-13T08:09:42;98659.75;;;11.38;75.83
78665;BME280;67981;51.022;-2.870;2023-03-13T08:12:08;98647.75;;;11.35;75.43
78665;BME280;67981;51.022;-2.870;2023-03-13T08:14:33;98667.38;;;11.48;76.26
78665;BME280;67981;51.022;-2.870;2023-03-13T08:16:58;98652.75;;;11.49;75.81
78665;BME280;67981;51.022;-2.870;2023-03-13T08:19:24;98675.13;;;11.53;75.36
78665;BME280;67981;51.022;-2.870;2023-03-13T08:21:49;98640.72;;;11.48;75.77
78665;BME280;67981;51.022;-2.870;2023-03-13T08:24:14;98654.47;;;11.52;75.67
78665;BME280;67981;51.022;-2.870;2023-03-13T08:26:40;98658.84;;;11.45;75.98
78665;BME280;67981;51.022;-2.870;2023-03-13T08:29:09;98636.41;;;11.52;74.85
78665;BME280;67981;51.022;-2.870;2023-03-13T08:31:37;98647.50;;;11.57;75.35
78665;BME280;67981;51.022;-2.870;2023-03-13T08:34:03;98652.69;;;11.58;75.30
78665;BME280;67981;51.022;-2.870;2023-03-13T08:36:33;98646.66;;;11.56;75.14
78665;BME280;67981;51.022;-2.870;2023-03-13T08:39:01;98630.31;;;11.54;74.77
78665;BME280;67981;51.022;-2.870;2023-03-13T08:41:28;98649.22;;;11.59;74.26
78665;BME280;67981;51.022;-2.870;2023-03-13T08:43:55;98632.03;;;11.58;74.41
78665;BME280;67981;51.022;-2.870;2023-03-13T08:46:21;98655.16;;;11.70;74.43
78665;BME280;67981;51.022;-2.870;2023-03-13T08:48:51;98655.13;;;11.73;74.98
78665;BME280;67981;51.022;-2.870;2023-03-13T08:51:18;98660.19;;;11.81;73.18
78665;BME280;67981;51.022;-2.870;2023-03-13T08:53:44;98650.78;;;11.75;73.62
78665;BME280;67981;51.022;-2.870;2023-03-13T08:56:12;98654.94;;;11.88;72.25
78665;BME280;67981;51.022;-2.870;2023-03-13T08:58:38;98650.75;;;11.78;73.10
78665;BME280;67981;51.022;-2.870;2023-03-13T09:01:06;98663.56;;;11.90;73.06
78665;BME280;67981;51.022;-2.870;2023-03-13T09:03:32;98653.41;;;11.74;73.18
78665;BME280;67981;51.022;-2.870;2023-03-13T09:05:59;98661.75;;;11.97;72.41
78665;BME280;67981;51.022;-2.870;2023-03-13T09:08:25;98666.91;;;11.97;72.50
78665;BME280;67981;51.022;-2.870;2023-03-13T09:11:02;98663.38;;;12.04;72.47
78665;BME280;67981;51.022;-2.870;2023-03-13T09:13:29;98667.81;;;11.93;72.85
78665;BME280;67981;51.022;-2.870;2023-03-13T09:16:03;98679.00;;;11.95;73.29
78665;BME280;67981;51.022;-2.870;2023-03-13T09:18:29;98679.22;;;11.75;74.75
78665;BME280;67981;51.022;-2.870;2023-03-13T09:20:55;98676.56;;;11.81;73.67
78665;BME280;67981;51.022;-2.870;2023-03-13T09:23:22;98680.69;;;11.96;72.64
78665;BME280;67981;51.022;-2.870;2023-03-13T09:25:51;98678.00;;;12.06;72.25
78665;BME280;67981;51.022;-2.870;2023-03-13T09:28:17;98673.78;;;11.98;72.47
78665;BME280;67981;51.022;-2.870;2023-03-13T09:30:42;98686.03;;;11.82;71.91
78665;BME280;67981;51.022;-2.870;2023-03-13T09:33:08;98692.75;;;11.98;71.38
78665;BME280;67981;51.022;-2.870;2023-03-13T09:35:33;98687.50;;;12.04;71.27
78665;BME280;67981;51.022;-2.870;2023-03-13T09:37:59;98701.28;;;12.03;72.11
78665;BME280;67981;51.022;-2.870;2023-03-13T09:40:25;98668.63;;;11.98;70.82
78665;BME280;67981;51.022;-2.870;2023-03-13T09:42:58;98680.44;;;12.17;71.13
78665;BME280;67981;51.022;-2.870;2023-03-13T09:45:30;98687.19;;;12.28;71.18
78665;BME280;67981;51.022;-2.870;2023-03-13T09:48:06;98695.78;;;12.30;71.26
78665;BME280;67981;51.022;-2.870;2023-03-13T09:50:39;98705.19;;;12.36;71.46
78665;BME280;67981;51.022;-2.870;2023-03-13T09:53:14;98692.22;;;12.39;70.89
78665;BME280;67981;51.022;-2.870;2023-03-13T09:55:44;98688.91;;;12.29;69.42
78665;BME280;67981;51.022;-2.870;2023-03-13T09:58:22;98691.53;;;12.26;70.66
78665;BME280;67981;51.022;-2.870;2023-03-13T10:01:08;98692.47;;;12.22;70.90
78665;BME280;67981;51.022;-2.870;2023-03-13T10:03:53;98715.63;;;12.30;70.04
78665;BME280;67981;51.022;-2.870;2023-03-13T10:06:24;98685.72;;;12.09;71.13
78665;BME280;67981;51.022;-2.870;2023-03-13T10:08:51;98720.00;;;12.23;70.11
78665;BME280;67981;51.022;-2.870;2023-03-13T10:11:27;98724.28;;;12.29;70.39
78665;BME280;67981;51.022;-2.870;2023-03-13T10:14:13;98709.66;;;12.25;70.40
78665;BME280;67981;51.022;-2.870;2023-03-13T10:19:34;98706.13;;;12.30;70.33
78665;BME280;67981;51.022;-2.870;2023-03-13T10:22:03;98682.91;;;12.24;69.76
78665;BME280;67981;51.022;-2.870;2023-03-13T10:27:23;98687.03;;;12.39;68.60
78665;BME280;67981;51.022;-2.870;2023-03-13T10:29:49;98696.41;;;12.47;69.21
78665;BME280;67981;51.022;-2.870;2023-03-13T10:32:16;98705.66;;;12.65;69.78
78665;BME280;67981;51.022;-2.870;2023-03-13T10:34:49;98700.41;;;12.69;69.27
78665;BME280;67981;51.022;-2.870;2023-03-13T10:37:21;98701.47;;;12.58;69.48
78665;BME280;67981;51.022;-2.870;2023-03-13T10:39:47;98692.16;;;12.45;70.34
78665;BME280;67981;51.022;-2.870;2023-03-13T10:42:31;98714.31;;;12.64;68.88
78665;BME280;67981;51.022;-2.870;2023-03-13T10:44:59;98703.78;;;12.76;69.33
78665;BME280;67981;51.022;-2.870;2023-03-13T10:47:25;98691.59;;;12.82;69.66
78665;BME280;67981;51.022;-2.870;2023-03-13T10:49:55;98708.59;;;12.99;69.47
78665;BME280;67981;51.022;-2.870;2023-03-13T10:55:03;98708.00;;;12.81;69.56
78665;BME280;67981;51.022;-2.870;2023-03-13T10:57:40;98715.75;;;12.83;70.10
78665;BME280;67981;51.022;-2.870;2023-03-13T11:00:31;98714.00;;;12.85;69.56
78665;BME280;67981;51.022;-2.870;2023-03-13T11:02:57;98725.94;;;12.94;69.03
78665;BME280;67981;51.022;-2.870;2023-03-13T11:07:53;98719.88;;;12.96;68.96
78665;BME280;67981;51.022;-2.870;2023-03-13T11:10:21;98715.72;;;12.86;68.88
78665;BME280;67981;51.022;-2.870;2023-03-13T11:12:49;98709.66;;;12.85;69.37
78665;BME280;67981;51.022;-2.870;2023-03-13T11:15:21;98714.66;;;12.99;68.67
78665;BME280;67981;51.022;-2.870;2023-03-13T11:20:44;98713.50;;;13.18;67.99
78665;BME280;67981;51.022;-2.870;2023-03-13T11:23:19;98726.38;;;13.23;66.42
78665;BME280;67981;51.022;-2.870;2023-03-13T11:26:01;98737.41;;;13.37;67.60
78665;BME280;67981;51.022;-2.870;2023-03-13T11:31:06;98733.94;;;13.36;66.75
78665;BME280;67981;51.022;-2.870;2023-03-13T11:39:24;98734.84;;;13.35;65.21
78665;BME280;67981;51.022;-2.870;2023-03-13T11:42:01;98724.88;;;13.08;66.56
78665;BME280;67981;51.022;-2.870;2023-03-13T11:52:53;98718.16;;;12.94;65.65
78665;BME280;67981;51.022;-2.870;2023-03-13T11:55:31;98727.84;;;12.82;65.81
78665;BME280;67981;51.022;-2.870;2023-03-13T12:00:36;98719.44;;;12.67;67.87
78665;BME280;67981;51.022;-2.870;2023-03-13T12:03:19;98724.84;;;12.50;68.65
78665;BME280;67981;51.022;-2.870;2023-03-13T12:05:52;98725.81;;;12.43;68.92
78665;BME280;67981;51.022;-2.870;2023-03-13T12:08:25;98716.28;;;12.44;69.72
78665;BME280;67981;51.022;-2.870;2023-03-13T12:13:42;98708.84;;;12.20;72.68
78665;BME280;67981;51.022;-2.870;2023-03-13T12:16:12;98713.22;;;12.13;73.20
78665;BME280;67981;51.022;-2.870;2023-03-13T12:18:41;98687.53;;;12.01;73.67
78665;BME280;67981;51.022;-2.870;2023-03-13T12:26:14;98697.16;;;11.87;76.77
78665;BME280;67981;51.022;-2.870;2023-03-13T12:28:44;98681.66;;;11.89;76.25
78665;BME280;67981;51.022;-2.870;2023-03-13T12:31:29;98700.47;;;12.01;76.60
78665;BME280;67981;51.022;-2.870;2023-03-13T12:36:56;98668.44;;;12.11;75.07
78665;BME280;67981;51.022;-2.870;2023-03-13T12:39:36;98664.16;;;12.10;75.45
78665;BME280;67981;51.022;-2.870;2023-03-13T12:42:30;98670.06;;;12.18;74.61
78665;BME280;67981;51.022;-2.870;2023-03-13T12:45:00;98668.44;;;12.10;75.01
78665;BME280;67981;51.022;-2.870;2023-03-13T12:53:23;98652.94;;;12.13;77.92
78665;BME280;67981;51.022;-2.870;2023-03-13T12:59:22;98645.31;;;12.01;78.41
78665;BME280;67981;51.022;-2.870;2023-03-13T13:01:52;98646.19;;;12.01;78.76
78665;BME280;67981;51.022;-2.870;2023-03-13T13:04:21;98641.09;;;11.94;79.58
78665;BME280;67981;51.022;-2.870;2023-03-13T13:06:59;98621.31;;;11.91;79.31
78665;BME280;67981;51.022;-2.870;2023-03-13T13:09:37;98630.75;;;11.92;79.80
78665;BME280;67981;51.022;-2.870;2023-03-13T13:12:23;98613.88;;;11.64;81.39
78665;BME280;67981;51.022;-2.870;2023-03-13T13:19:52;98604.03;;;11.17;85.08
78665;BME280;67981;51.022;-2.870;2023-03-13T13:25:36;98570.75;;;10.90;86.33
78665;BME280;67981;51.022;-2.870;2023-03-13T13:28:22;98573.31;;;10.89;86.44
78665;BME280;67981;51.022;-2.870;2023-03-13T13:30:51;98580.13;;;10.97;86.32
78665;BME280;67981;51.022;-2.870;2023-03-13T13:36:24;98575.19;;;11.58;83.38
78665;BME280;67981;51.022;-2.870;2023-03-13T13:38:50;98574.75;;;11.94;82.99
78665;BME280;67981;51.022;-2.870;2023-03-13T13:43:45;98568.81;;;12.45;81.12
78665;BME280;67981;51.022;-2.870;2023-03-13T13:46:32;98554.38;;;12.31;79.56
78665;BME280;67981;51.022;-2.870;2023-03-13T13:51:31;98539.47;;;12.48;78.25
78665;BME280;67981;51.022;-2.870;2023-03-13T13:56:48;98529.59;;;12.16;79.40
78665;BME280;67981;51.022;-2.870;2023-03-13T14:01:44;98523.97;;;11.90;79.80
78665;BME280;67981;51.022;-2.870;2023-03-13T14:04:18;98509.16;;;12.03;79.16
78665;BME280;67981;51.022;-2.870;2023-03-13T14:06:48;98498.13;;;11.90;80.57
78665;BME280;67981;51.022;-2.870;2023-03-13T14:11:46;98468.16;;;11.79;80.74
78665;BME280;67981;51.022;-2.870;2023-03-13T14:16:45;98473.78;;;12.06;80.38
78665;BME280;67981;51.022;-2.870;2023-03-13T14:21:45;98463.47;;;12.02;80.12
78665;BME280;67981;51.022;-2.870;2023-03-13T14:24:15;98449.47;;;12.15;80.65